Time;durP1;ratioP1;P1;durP2;ratioP2;P2;SDS_P1;SDS_P2;PMS_P1;PMS_P2;Temp;Humidity;BMP_temperature;BMP_pressure;BME280_temperature;BME280_humidity;BME280_pressure;Samples;Min_cycle;Max_cycle;Signal;HPM_P1;HPM_P2
2020/12/29 00:00:50;;;;;;;1999.90;999.90;;;1.90;99.90;;;;;;5011859;28;20176;-63
2020/12/29 00:03:20;;;;;;;1999.90;999.90;;;1.90;99.90;;;;;;5011803;28;21118;-65
2020/12/29 00:05:46;;;;;;;1999.90;999.90;;;2.00;99.90;;;;;;5011655;28;20204;-63
2020/12/29 00:08:12;;;;;;;1999.90;999.90;;;2.00;99.90;;;;;;5011673;28;20173;-63
2020/12/29 00:10:38;;;;;;;1999.90;999.90;;;2.00;99.90;;;;;;5011752;28;20239;-63
2020/12/29 00:13:04;;;;;;;1999.90;999.90;;;2.00;99.90;;;;;;5011683;28;20180;-62
2020/12/29 00:15:30;;;;;;;1999.90;999.90;;;2.00;99.90;;;;;;5011570;28;20173;-62
2020/12/29 00:17:55;;;;;;;1999.90;999.90;;;2.00;99.90;;;;;;5011602;28;20404;-63
2020/12/29 00:20:21;;;;;;;1999.90;999.90;;;2.10;99.90;;;;;;5011284;28;20184;-62
2020/12/29 00:22:47;;;;;;;1999.90;999.90;;;2.10;99.90;;;;;;5011609;28;20244;-62
2020/12/29 00:25:18;;;;;;;1999.90;999.90;;;2.20;99.90;;;;;;5011321;28;20169;-63
2020/12/29 00:27:43;;;;;;;1999.90;999.90;;;2.20;99.90;;;;;;5011662;28;20169;-63
2020/12/29 00:30:09;;;;;;;1999.90;999.90;;;2.20;99.90;;;;;;5011176;28;20685;-63
2020/12/29 00:32:35;;;;;;;1999.90;999.90;;;2.30;99.90;;;;;;5011368;28;20170;-62
2020/12/29 00:35:00;;;;;;;1999.90;999.90;;;2.40;99.90;;;;;;5011320;28;20173;-63
2020/12/29 00:37:26;;;;;;;1999.90;999.90;;;2.50;99.90;;;;;;5011191;28;20208;-62
2020/12/29 00:39:52;;;;;;;1999.90;999.90;;;2.50;99.90;;;;;;5011131;28;20165;-63
2020/12/29 00:42:17;;;;;;;1999.90;999.90;;;2.40;99.90;;;;;;5011379;28;20169;-62
2020/12/29 00:44:43;;;;;;;1999.90;999.90;;;2.40;99.90;;;;;;5011405;28;20173;-62
2020/12/29 00:47:08;;;;;;;1999.90;999.90;;;2.40;99.90;;;;;;5010999;28;20654;-60
2020/12/29 00:49:37;;;;;;;1999.90;999.90;;;2.40;99.90;;;;;;5010884;28;20176;-62
2020/12/29 00:52:03;;;;;;;1999.90;999.90;;;2.40;99.90;;;;;;5011083;28;20772;-60
2020/12/29 00:54:29;;;;;;;1999.90;999.90;;;2.30;99.90;;;;;;5011225;28;20197;-62
2020/12/29 00:56:55;;;;;;;1999.90;999.90;;;2.20;99.90;;;;;;5011118;28;20434;-62
2020/12/29 00:59:20;;;;;;;1999.90;999.90;;;2.20;99.90;;;;;;5010864;28;20407;-63
2020/12/29 01:01:54;;;;;;;1999.90;999.90;;;2.10;99.90;;;;;;5011001;28;20654;-63
2020/12/29 01:04:20;;;;;;;1999.90;999.90;;;2.10;99.90;;;;;;5011294;28;20573;-62
2020/12/29 01:06:45;;;;;;;1999.90;999.90;;;2.10;99.90;;;;;;5011287;28;20197;-64
2020/12/29 01:09:11;;;;;;;1999.90;999.90;;;2.10;99.90;;;;;;5011029;28;20235;-63
2020/12/29 01:11:36;;;;;;;1999.90;999.90;;;2.00;99.90;;;;;;5011102;28;20200;-62
2020/12/29 01:14:02;;;;;;;1999.90;999.90;;;1.90;99.90;;;;;;5011119;28;20162;-63
2020/12/29 01:16:28;;;;;;;1999.90;999.90;;;1.70;99.90;;;;;;5010902;28;20561;-63
2020/12/29 01:18:53;;;;;;;1999.90;999.90;;;1.70;99.90;;;;;;5010648;28;20195;-62
2020/12/29 01:21:19;;;;;;;1999.90;999.90;;;1.70;99.90;;;;;;5010912;28;20173;-63
2020/12/29 01:23:45;;;;;;;1999.90;999.90;;;1.70;99.90;;;;;;5010879;28;20169;-62
2020/12/29 01:26:10;;;;;;;1999.90;999.90;;;1.70;99.90;;;;;;5010767;28;20185;-63
2020/12/29 01:28:38;;;;;;;1999.90;999.90;;;1.80;99.90;;;;;;5010620;28;20261;-62
2020/12/29 01:31:04;;;;;;;1999.90;999.90;;;1.80;99.90;;;;;;5010678;28;20189;-63
2020/12/29 01:33:30;;;;;;;1999.90;999.90;;;2.00;99.90;;;;;;5010998;28;20177;-63
2020/12/29 01:35:56;;;;;;;1999.90;999.90;;;1.90;99.90;;;;;;5010589;28;20947;-63
2020/12/29 01:38:21;;;;;;;1999.90;999.90;;;2.00;99.90;;;;;;5012854;28;20223;-63
2020/12/29 01:40:47;;;;;;;1999.90;999.90;;;2.10;99.90;;;;;;5014426;28;20545;-63
2020/12/29 01:43:13;;;;;;;1999.90;999.90;;;2.10;99.90;;;;;;5014406;28;20205;-62
2020/12/29 01:45:38;;;;;;;1999.90;999.90;;;2.20;99.90;;;;;;5014160;28;20200;-62
2020/12/29 01:48:04;;;;;;;1999.90;999.90;;;2.20;99.90;;;;;;5014210;28;20408;-62
2020/12/29 01:50:30;;;;;;;1999.90;999.90;;;2.30;99.90;;;;;;5013971;28;20289;-63
2020/12/29 01:53:00;;;;;;;1999.90;999.90;;;2.40;99.90;;;;;;5014273;28;20231;-63
2020/12/29 01:55:27;;;;;;;1999.90;999.90;;;2.50;99.90;;;;;;5014072;28;20765;-63
2020/12/29 01:57:54;;;;;;;1999.90;999.90;;;2.50;99.90;;;;;;5014092;28;20185;-63
2020/12/29 02:00:19;;;;;;;1999.90;999.90;;;2.60;99.90;;;;;;5013679;28;20165;-62
2020/12/29 02:02:46;;;;;;;1999.90;999.90;;;2.60;99.90;;;;;;5014338;28;20227;-62
2020/12/29 02:05:12;;;;;;;1999.90;999.90;;;2.60;99.90;;;;;;5014212;28;20416;-63
2020/12/29 02:07:39;;;;;;;1999.90;999.90;;;2.50;99.90;;;;;;5013889;28;20189;-62
2020/12/29 02:10:05;;;;;;;1999.90;999.90;;;2.30;99.90;;;;;;5013739;28;20443;-63
2020/12/29 02:12:36;;;;;;;1999.90;999.90;;;2.30;99.90;;;;;;5013764;28;20216;-63
2020/12/29 02:15:05;;;;;;;1999.90;999.90;;;2.20;99.90;;;;;;5013786;28;20300;-62
2020/12/29 02:17:31;;;;;;;1999.90;999.90;;;2.30;99.90;;;;;;5013818;28;20196;-62
2020/12/29 02:19:57;;;;;;;1999.90;999.90;;;2.20;99.90;;;;;;5013581;28;20531;-60
2020/12/29 02:22:24;;;;;;;1999.90;999.90;;;2.20;99.90;;;;;;5013715;28;20165;-62
2020/12/29 02:24:53;;;;;;;1999.90;999.90;;;2.30;99.90;;;;;;5013644;28;20180;-62
2020/12/29 02:27:21;;;;;;;1999.90;999.90;;;2.40;99.90;;;;;;5013478;28;20239;-62
2020/12/29 02:29:47;;;;;;;1999.90;999.90;;;2.50;99.90;;;;;;5013291;28;20169;-62
2020/12/29 02:32:13;;;;;;;1999.90;999.90;;;2.60;99.90;;;;;;5013432;28;20197;-62
2020/12/29 02:34:39;;;;;;;1999.90;999.90;;;2.50;99.90;;;;;;5013552;28;20169;-62
2020/12/29 02:37:07;;;;;;;1999.90;999.90;;;2.60;99.90;;;;;;5013225;28;20212;-62
2020/12/29 02:39:38;;;;;;;1999.90;999.90;;;2.70;99.90;;;;;;5013228;28;20170;-62
2020/12/29 02:42:04;;;;;;;1999.90;999.90;;;2.70;99.90;;;;;;5013270;28;20223;-60
2020/12/29 02:44:30;;;;;;;1999.90;999.90;;;2.80;99.90;;;;;;5013297;28;20185;-62
2020/12/29 02:46:56;;;;;;;1999.90;999.90;;;2.80;99.90;;;;;;5013393;28;20824;-63
2020/12/29 02:49:21;;;;;;;1999.90;999.90;;;2.90;99.90;;;;;;5012995;28;20494;-63
2020/12/29 02:51:47;;;;;;;1999.90;999.90;;;2.90;99.90;;;;;;5013347;28;20197;-63
2020/12/29 02:54:13;;;;;;;1999.90;999.90;;;3.00;99.90;;;;;;5013179;28;20256;-63
2020/12/29 02:56:43;;;;;;;1999.90;999.90;;;3.10;99.90;;;;;;5013004;28;20189;-63
2020/12/29 02:59:10;;;;;;;1999.90;999.90;;;3.10;99.90;;;;;;5012836;28;20174;-62
2020/12/29 03:01:35;;;;;;;1999.90;999.90;;;3.20;99.90;;;;;;5013119;28;20169;-63
2020/12/29 03:04:01;;;;;;;1999.90;999.90;;;3.30;99.90;;;;;;5013159;28;20551;-62
2020/12/29 03:06:27;;;;;;;1999.90;999.90;;;3.40;99.90;;;;;;5012748;28;20196;-62
2020/12/29 03:08:53;;;;;;;1999.90;999.90;;;3.30;99.90;;;;;;5012489;28;20185;-62
2020/12/29 03:11:30;;;;;;;1999.90;999.90;;;3.20;99.90;;;;;;5012710;28;20208;-62
2020/12/29 03:13:57;;;;;;;1999.90;999.90;;;3.20;99.90;;;;;;5012657;28;20188;-62
2020/12/29 03:16:23;;;;;;;1999.90;999.90;;;3.20;99.90;;;;;;5012711;28;20197;-62
2020/12/29 03:18:49;;;;;;;1999.90;999.90;;;3.20;99.90;;;;;;5012385;28;20169;-63
2020/12/29 03:21:15;;;;;;;1999.90;999.90;;;3.10;99.90;;;;;;5012539;28;20181;-62
2020/12/29 03:23:41;;;;;;;1999.90;999.90;;;3.00;99.90;;;;;;5012500;28;20189;-59
2020/12/29 03:26:07;;;;;;;1999.90;999.90;;;2.90;99.90;;;;;;5012334;28;20428;-62
2020/12/29 03:28:32;;;;;;;1999.90;999.90;;;2.80;99.90;;;;;;5012106;28;20450;-63
2020/12/29 03:30:58;;;;;;;1999.90;999.90;;;2.70;99.90;;;;;;5012323;28;20459;-62
2020/12/29 03:33:24;;;;;;;1999.90;999.90;;;2.60;99.90;;;;;;5012340;28;20638;-62
2020/12/29 03:35:49;;;;;;;1999.90;999.90;;;2.60;99.90;;;;;;5012119;28;20197;-63
2020/12/29 03:38:15;;;;;;;1999.90;999.90;;;2.50;99.90;;;;;;5011983;28;20177;-62
2020/12/29 03:40:41;;;;;;;1999.90;999.90;;;2.30;99.90;;;;;;5012199;28;20180;-62
2020/12/29 03:43:12;;;;;;;1999.90;999.90;;;2.10;99.90;;;;;;5012085;28;20177;-62
2020/12/29 03:45:44;;;;;;;1999.90;999.90;;;1.90;99.90;;;;;;5012079;28;20698;-62
2020/12/29 03:48:11;;;;;;;1999.90;999.90;;;1.80;99.90;;;;;;5011904;28;20209;-62
2020/12/29 03:50:38;;;;;;;1999.90;999.90;;;1.80;99.90;;;;;;5011952;28;20192;-60
2020/12/29 03:53:04;;;;;;;1999.90;999.90;;;1.70;99.90;;;;;;5012075;28;20196;-62
2020/12/29 03:55:30;;;;;;;1999.90;999.90;;;1.70;99.90;;;;;;5011924;28;20177;-62
2020/12/29 03:57:55;;;;;;;1999.90;999.90;;;1.70;99.90;;;;;;5011932;28;20192;-63
2020/12/29 04:00:21;;;;;;;1999.90;999.90;;;1.70;99.90;;;;;;5011074;28;20165;-62
2020/12/29 04:02:46;;;;;;;1999.90;999.90;;;1.70;99.90;;;;;;5011910;28;20623;-63
2020/12/29 04:05:12;;;;;;;1999.90;999.90;;;1.70;99.90;;;;;;5011836;28;20176;-62
2020/12/29 04:07:38;;;;;;;1999.90;999.90;;;1.60;99.90;;;;;;5011722;28;20185;-62
2020/12/29 04:10:05;;;;;;;1999.90;999.90;;;1.60;99.90;;;;;;5011481;28;20642;-62
2020/12/29 04:12:31;;;;;;;1999.90;999.90;;;1.60;99.90;;;;;;5011500;28;20501;-62
2020/12/29 04:14:57;;;;;;;1999.90;999.90;;;1.70;99.90;;;;;;5011663;28;20638;-62
2020/12/29 04:17:22;;;;;;;1999.90;999.90;;;1.70;99.90;;;;;;5011542;28;20483;-63
2020/12/29 04:19:48;;;;;;;1999.90;999.90;;;1.60;99.90;;;;;;5011272;28;20400;-62
2020/12/29 04:22:14;;;;;;;1999.90;999.90;;;1.70;99.90;;;;;;5011536;28;20495;-63
2020/12/29 04:24:39;;;;;;;1999.90;999.90;;;1.70;99.90;;;;;;5011595;28;20180;-62
2020/12/29 04:27:05;;;;;;;1999.90;999.90;;;1.60;99.90;;;;;;5011456;28;20193;-63
2020/12/29 04:29:31;;;;;;;1999.90;999.90;;;1.60;99.90;;;;;;5011225;28;20173;-62
2020/12/29 04:31:56;;;;;;;1999.90;999.90;;;1.60;99.90;;;;;;5011622;28;20689;-62
2020/12/29 04:34:22;;;;;;;1999.90;999.90;;;1.70;99.90;;;;;;5011528;28;20169;-62
2020/12/29 04:36:54;;;;;;;1999.90;999.90;;;1.70;99.90;;;;;;5011587;28;20197;-62
2020/12/29 04:39:21;;;;;;;1999.90;999.90;;;1.60;99.90;;;;;;5011257;28;20172;-63
2020/12/29 04:41:52;;;;;;;1999.90;999.90;;;1.50;99.90;;;;;;5011281;28;20174;-62
2020/12/29 04:44:19;;;;;;;1999.90;999.90;;;1.40;99.90;;;;;;5011409;28;20172;-63
2020/12/29 04:46:44;;;;;;;1999.90;999.90;;;1.30;99.90;;;;;;5011187;28;20220;-63
2020/12/29 04:49:11;;;;;;;1999.90;999.90;;;1.30;99.90;;;;;;5010859;28;20262;-63
2020/12/29 04:51:39;;;;;;;1999.90;999.90;;;1.30;99.90;;;;;;5011103;28;20777;-63
2020/12/29 04:54:07;;;;;;;1999.90;999.90;;;1.30;99.90;;;;;;5011127;28;20223;-62
2020/12/29 04:56:33;;;;;;;1999.90;999.90;;;1.20;99.90;;;;;;5011040;28;20188;-61
2020/12/29 04:59:03;;;;;;;1999.90;999.90;;;1.20;99.90;;;;;;5010892;28;20173;-62
2020/12/29 05:01:32;;;;;;;1999.90;999.90;;;1.20;99.90;;;;;;5010964;28;20208;-62
2020/12/29 05:03:57;;;;;;;1999.90;999.90;;;1.20;99.90;;;;;;5011007;28;20165;-63
2020/12/29 05:06:24;;;;;;;1999.90;999.90;;;1.20;99.90;;;;;;5010925;28;20192;-62
2020/12/29 05:08:52;;;;;;;1999.90;999.90;;;1.20;99.90;;;;;;5010833;28;20415;-62
2020/12/29 05:11:19;;;;;;;1999.90;999.90;;;1.20;99.90;;;;;;5010909;28;20580;-63
2020/12/29 05:13:46;;;;;;;1999.90;999.90;;;1.20;99.90;;;;;;5014006;28;20165;-63
2020/12/29 05:16:12;;;;;;;1999.90;999.90;;;1.20;99.90;;;;;;5014781;28;20201;-64
2020/12/29 05:18:38;;;;;;;1999.90;999.90;;;1.10;99.90;;;;;;5014788;28;20170;-63
2020/12/29 05:21:03;;;;;;;1999.90;999.90;;;1.10;99.90;;;;;;5014968;28;20198;-62
2020/12/29 05:23:29;;;;;;;1999.90;999.90;;;1.10;99.90;;;;;;5014908;28;20177;-63
2020/12/29 05:25:56;;;;;;;1999.90;999.90;;;1.10;99.90;;;;;;5014573;28;20188;-63
2020/12/29 05:28:25;;;;;;;1999.90;999.90;;;1.10;99.90;;;;;;5014519;28;20169;-62
2020/12/29 05:31:00;;;;;;;1999.90;999.90;;;1.00;99.90;;;;;;5014603;28;20196;-63
2020/12/29 05:33:27;;;;;;;1999.90;999.90;;;1.00;99.90;;;;;;5014530;28;20215;-63
2020/12/29 05:35:57;;;;;;;1999.90;999.90;;;1.00;99.90;;;;;;5014367;28;20208;-63
2020/12/29 05:38:23;;;;;;;1999.90;999.90;;;1.00;99.90;;;;;;5014328;28;20231;-62
2020/12/29 05:40:49;;;;;;;1999.90;999.90;;;1.10;99.90;;;;;;5014418;28;20550;-62
2020/12/29 05:43:25;;;;;;;1999.90;999.90;;;1.20;99.90;;;;;;5014267;28;20673;-62
2020/12/29 05:45:51;;;;;;;1999.90;999.90;;;1.20;99.90;;;;;;5014330;28;20197;-62
2020/12/29 05:48:17;;;;;;;1999.90;999.90;;;1.10;99.90;;;;;;5014122;28;20188;-62
2020/12/29 05:50:43;;;;;;;1999.90;999.90;;;1.20;99.90;;;;;;5014167;28;20197;-63
2020/12/29 05:53:11;;;;;;;1999.90;999.90;;;1.20;99.90;;;;;;5014258;28;20519;-62
2020/12/29 05:55:37;;;;;;;1999.90;999.90;;;1.30;99.90;;;;;;5014066;28;20791;-61
2020/12/29 05:58:04;;;;;;;1999.90;999.90;;;1.40;99.90;;;;;;5014123;28;20173;-62
2020/12/29 06:00:30;;;;;;;1999.90;999.90;;;1.50;99.90;;;;;;5014028;28;20419;-63
2020/12/29 06:02:57;;;;;;;1999.90;999.90;;;1.50;99.90;;;;;;5014239;28;20165;-64
2020/12/29 06:05:27;;;;;;;1999.90;999.90;;;1.60;99.90;;;;;;5014000;28;20169;-62
2020/12/29 06:07:57;;;;;;;1999.90;999.90;;;1.60;99.90;;;;;;5014095;28;20571;-62
2020/12/29 06:10:24;;;;;;;1999.90;999.90;;;1.60;99.90;;;;;;5013720;28;20185;-62
2020/12/29 06:12:55;;;;;;;1999.90;999.90;;;1.60;99.90;;;;;;5014152;28;20172;-62
2020/12/29 06:15:28;;;;;;;1999.90;999.90;;;1.70;99.90;;;;;;5013872;28;20188;-63
2020/12/29 06:18:07;;;;;;;1999.90;999.90;;;1.70;99.90;;;;;;5013896;28;20252;-62
2020/12/29 06:20:57;;;;;;;1999.90;999.90;;;1.80;99.90;;;;;;5013644;28;20169;-62
2020/12/29 06:23:28;;;;;;;1999.90;999.90;;;1.90;99.90;;;;;;5013385;28;20161;-62
2020/12/29 06:25:57;;;;;;;1999.90;999.90;;;2.00;99.90;;;;;;5013767;28;20189;-62
2020/12/29 06:28:27;;;;;;;1999.90;999.90;;;2.10;99.90;;;;;;5013338;28;20174;-62
2020/12/29 06:30:56;;;;;;;1999.90;999.90;;;2.00;99.90;;;;;;5013564;28;20247;-62
2020/12/29 06:33:23;;;;;;;1999.90;999.90;;;2.10;99.90;;;;;;5013434;28;20171;-61
2020/12/29 06:35:50;;;;;;;1999.90;999.90;;;2.20;99.90;;;;;;5013486;28;20308;-62
2020/12/29 06:38:24;;;;;;;1999.90;999.90;;;2.10;99.90;;;;;;5013286;28;20196;-63
2020/12/29 06:40:51;;;;;;;1999.90;999.90;;;2.20;99.90;;;;;;5013321;28;20654;-63
2020/12/29 06:43:17;;;;;;;1999.90;999.90;;;2.30;99.90;;;;;;5013429;28;20613;-63
2020/12/29 06:45:42;;;;;;;1999.90;999.90;;;2.30;99.90;;;;;;5013184;28;20296;-62
2020/12/29 06:48:21;;;;;;;1999.90;999.90;;;2.30;99.90;;;;;;5013031;28;20196;-64
2020/12/29 06:50:47;;;;;;;1999.90;999.90;;;2.30;99.90;;;;;;5013095;28;20197;-64
2020/12/29 06:53:19;;;;;;;1999.90;999.90;;;2.30;99.90;;;;;;5013125;28;20173;-64
2020/12/29 06:55:49;;;;;;;1999.90;999.90;;;2.30;99.90;;;;;;5013082;28;20745;-63
2020/12/29 06:58:44;;;;;;;1999.90;999.90;;;2.30;99.90;;;;;;5012776;28;20654;-63
2020/12/29 07:01:34;;;;;;;1999.90;999.90;;;2.30;99.90;;;;;;5012328;28;20184;-63
2020/12/29 07:04:06;;;;;;;1999.90;999.90;;;2.20;99.90;;;;;;5012824;28;20259;-64
2020/12/29 07:06:34;;;;;;;1999.90;999.90;;;2.20;99.90;;;;;;5012791;28;20196;-63
2020/12/29 07:09:09;;;;;;;1999.90;999.90;;;2.10;99.90;;;;;;5012742;28;20568;-63
2020/12/29 07:11:35;;;;;;;1999.90;999.90;;;2.10;99.90;;;;;;5012656;28;20270;-62
2020/12/29 07:14:05;;;;;;;1999.90;999.90;;;2.00;99.90;;;;;;5012725;28;20169;-63
2020/12/29 07:16:31;;;;;;;1999.90;999.90;;;2.00;99.90;;;;;;5012657;28;20181;-64
2020/12/29 07:19:11;;;;;;;1999.90;999.90;;;1.90;99.90;;;;;;5012350;28;20239;-63
2020/12/29 07:21:38;;;;;;;1999.90;999.90;;;1.90;99.90;;;;;;5012839;28;20177;-63
2020/12/29 07:24:07;;;;;;;1999.90;999.90;;;1.90;99.90;;;;;;5012455;28;20173;-64
2020/12/29 07:26:37;;;;;;;1999.90;999.90;;;2.00;99.90;;;;;;5012530;28;20212;-62
2020/12/29 07:29:06;;;;;;;1999.90;999.90;;;2.00;99.90;;;;;;5012233;28;20173;-62
2020/12/29 07:31:38;;;;;;;1999.90;999.90;;;2.00;99.90;;;;;;5012210;28;20292;-62
2020/12/29 07:34:10;;;;;;;1999.90;999.90;;;2.10;99.90;;;;;;5012416;28;20173;-63
2020/12/29 07:36:39;;;;;;;1999.90;999.90;;;2.10;99.90;;;;;;5011339;28;20209;-62
2020/12/29 07:39:05;;;;;;;1999.90;999.90;;;2.10;99.90;;;;;;5012043;28;20256;-62
2020/12/29 07:41:33;;;;;;;1999.90;999.90;;;2.10;99.90;;;;;;5012275;28;20203;-62
2020/12/29 07:43:59;;;;;;;1999.90;999.90;;;2.20;99.90;;;;;;5012085;28;20781;-62
2020/12/29 07:46:27;;;;;;;1999.90;999.90;;;2.30;99.90;;;;;;5012257;28;20296;-63
2020/12/29 07:48:52;;;;;;;1999.90;999.90;;;2.40;99.90;;;;;;5011879;28;20177;-63
2020/12/29 07:51:18;;;;;;;1999.90;999.90;;;2.50;99.90;;;;;;5012163;28;20208;-62
2020/12/29 07:53:43;;;;;;;1999.90;999.90;;;2.50;99.90;;;;;;5012031;28;20161;-62
2020/12/29 07:56:10;;;;;;;1999.90;999.90;;;2.50;99.90;;;;;;5012080;28;20681;-64
2020/12/29 07:58:36;;;;;;;1999.90;999.90;;;2.50;99.90;;;;;;5011757;28;20169;-62
2020/12/29 08:01:04;;;;;;;1999.90;999.90;;;2.60;99.90;;;;;;5011922;28;20172;-63
2020/12/29 08:03:30;;;;;;;1999.90;999.90;;;2.60;99.90;;;;;;5011829;28;20169;-62
2020/12/29 08:05:55;;;;;;;1999.90;999.90;;;2.60;99.90;;;;;;5011916;28;20692;-62
2020/12/29 08:08:21;;;;;;;1999.90;999.90;;;2.60;99.90;;;;;;5011579;28;20165;-63
2020/12/29 08:10:46;;;;;;;1999.90;999.90;;;2.70;99.90;;;;;;5011783;28;20528;-63
2020/12/29 08:13:14;;;;;;;1999.90;999.90;;;2.80;99.90;;;;;;5011621;28;20165;-63
2020/12/29 08:15:41;;;;;;;1999.90;999.90;;;2.90;99.90;;;;;;5011555;28;20181;-63
2020/12/29 08:18:17;;;;;;;1999.90;999.90;;;2.80;99.90;;;;;;5011458;28;20687;-63
2020/12/29 08:20:57;;;;;;;1999.90;999.90;;;2.90;99.90;;;;;;5011570;28;20169;-63
2020/12/29 08:23:24;;;;;;;1999.90;999.90;;;2.90;99.90;;;;;;5011458;28;20812;-62
2020/12/29 08:25:53;;;;;;;1999.90;999.90;;;2.90;99.90;;;;;;5011399;28;20196;-62
2020/12/29 08:28:20;;;;;;;1999.90;999.90;;;3.00;99.90;;;;;;5011363;28;20188;-62
2020/12/29 08:30:46;;;;;;;1999.90;999.90;;;3.10;99.90;;;;;;5011386;28;20669;-62
2020/12/29 08:33:14;;;;;;;1999.90;999.90;;;3.10;99.90;;;;;;5011389;28;20173;-62
2020/12/29 08:35:49;;;;;;;1999.90;999.90;;;3.10;99.90;;;;;;5011168;28;20450;-62
2020/12/29 08:38:32;;;;;;;1999.90;999.90;;;3.10;99.90;;;;;;5010892;28;20566;-62
2020/12/29 08:41:12;;;;;;;1999.90;999.90;;;3.10;99.90;;;;;;5011329;28;20192;-62
2020/12/29 08:43:47;;;;;;;1999.90;999.90;;;3.00;99.90;;;;;;5011310;28;20180;-63
2020/12/29 08:46:15;;;;;;;1999.90;999.90;;;2.90;99.90;;;;;;5010996;28;20196;-62
2020/12/29 08:48:59;;;;;;;1999.90;999.90;;;2.90;99.90;;;;;;5010820;28;20592;-62
2020/12/29 08:51:38;;;;;;;1999.90;999.90;;;2.90;99.90;;;;;;5011092;28;20283;-63
2020/12/29 08:54:21;;;;;;;1999.90;999.90;;;3.00;99.90;;;;;;5011235;28;20631;-63
2020/12/29 08:56:47;;;;;;;1999.90;999.90;;;2.90;99.90;;;;;;5011104;28;20585;-62
2020/12/29 08:59:15;;;;;;;1999.90;999.90;;;2.90;99.90;;;;;;5010987;28;20169;-62
2020/12/29 09:01:42;;;;;;;1999.90;999.90;;;2.90;99.90;;;;;;5011269;28;20180;-62
2020/12/29 09:04:28;;;;;;;1999.90;999.90;;;2.90;99.90;;;;;;5011287;28;20172;-63
2020/12/29 09:07:11;;;;;;;1999.90;999.90;;;2.90;99.90;;;;;;5010929;28;20280;-63
2020/12/29 09:09:52;;;;;;;1999.90;999.90;;;3.10;99.90;;;;;;5011009;28;20577;-62
2020/12/29 09:12:22;;;;;;;1999.90;999.90;;;3.20;99.90;;;;;;5010968;28;20200;-63
2020/12/29 09:14:55;;;;;;;1999.90;999.90;;;3.30;99.90;;;;;;5010972;28;20201;-63
2020/12/29 09:17:22;;;;;;;1999.90;999.90;;;3.50;99.90;;;;;;5010855;28;20287;-63
2020/12/29 09:20:07;;;;;;;1999.90;999.90;;;3.70;99.90;;;;;;5010610;28;20408;-62
2020/12/29 09:22:33;;;;;;;1999.90;999.90;;;3.90;99.90;;;;;;5010866;28;20545;-63
2020/12/29 09:24:58;;;;;;;1999.90;999.90;;;4.00;99.90;;;;;;5010873;28;20173;-63
2020/12/29 09:27:29;;;;;;;1999.90;999.90;;;4.10;99.90;;;;;;5007295;28;20671;-62
2020/12/29 09:29:56;;;;;;;1999.90;999.90;;;4.10;99.90;;;;;;5008749;28;20252;-63
2020/12/29 09:32:23;;;;;;;1999.90;999.90;;;4.20;99.90;;;;;;5009104;28;20296;-62
2020/12/29 09:34:49;;;;;;;1999.90;999.90;;;4.30;99.90;;;;;;5008932;28;20487;-61
2020/12/29 09:37:16;;;;;;;1999.90;999.90;;;4.40;99.90;;;;;;5009336;28;20216;-63
2020/12/29 09:39:41;;;;;;;1999.90;999.90;;;4.40;99.90;;;;;;5009160;28;20165;-62
2020/12/29 09:42:07;;;;;;;1999.90;999.90;;;4.30;99.90;;;;;;5009201;28;20271;-62
2020/12/29 09:44:32;;;;;;;1999.90;999.90;;;4.30;99.90;;;;;;5009450;28;20639;-59
2020/12/29 09:46:58;;;;;;;1999.90;999.90;;;4.20;99.90;;;;;;5009373;28;20232;-62
2020/12/29 09:49:24;;;;;;;1999.90;999.90;;;4.20;99.90;;;;;;5008705;28;20165;-60
2020/12/29 09:51:53;;;;;;;1999.90;999.90;;;4.20;99.90;;;;;;5008987;28;20232;-63
2020/12/29 09:54:19;;;;;;;1999.90;999.90;;;4.10;99.90;;;;;;5009548;28;20197;-62
2020/12/29 09:56:44;;;;;;;1999.90;999.90;;;4.20;99.90;;;;;;5008467;28;20235;-62
2020/12/29 09:59:10;;;;;;;1999.90;999.90;;;4.20;99.90;;;;;;5010817;28;20179;-62
2020/12/29 10:01:36;;;;;;;1999.90;999.90;;;4.40;99.90;;;;;;5012763;28;20201;-62
2020/12/29 10:04:01;;;;;;;1999.90;999.90;;;4.40;99.90;;;;;;5012162;28;20200;-61
2020/12/29 10:06:27;;;;;;;1999.90;999.90;;;4.50;99.90;;;;;;5012872;28;20236;-62
2020/12/29 10:08:53;;;;;;;1999.90;999.90;;;4.50;99.90;;;;;;5012333;28;20430;-63
2020/12/29 10:11:18;;;;;;;1999.90;999.90;;;4.40;99.90;;;;;;5012129;28;20638;-62
2020/12/29 10:13:44;;;;;;;1999.90;999.90;;;4.30;99.90;;;;;;5012574;28;20662;-63
2020/12/29 10:16:09;;;;;;;1999.90;999.90;;;4.30;99.90;;;;;;5012406;28;20196;-63
2020/12/29 10:18:35;;;;;;;1999.90;999.90;;;4.30;99.90;;;;;;5011914;28;20204;-61
2020/12/29 10:21:01;;;;;;;1999.90;999.90;;;4.30;99.90;;;;;;5012584;28;20177;-63
2020/12/29 10:23:26;;;;;;;1999.90;999.90;;;4.30;99.90;;;;;;5012493;28;20173;-63
2020/12/29 10:25:52;;;;;;;1999.90;999.90;;;4.40;99.90;;;;;;5011723;28;20197;-63
2020/12/29 10:28:19;;;;;;;1999.90;999.90;;;4.40;99.90;;;;;;5011922;28;20258;-63
2020/12/29 10:30:46;;;;;;;1999.90;999.90;;;4.50;99.90;;;;;;5012016;28;20612;-63
2020/12/29 10:33:12;;;;;;;1999.90;999.90;;;4.60;99.90;;;;;;5011719;28;20809;-63
2020/12/29 10:35:38;;;;;;;1999.90;999.90;;;4.60;99.90;;;;;;5011747;28;22003;-63
2020/12/29 10:38:04;;;;;;;1999.90;999.90;;;4.70;99.90;;;;;;5011923;28;20264;-63
2020/12/29 10:40:29;;;;;;;1999.90;999.90;;;4.90;99.90;;;;;;5011160;28;20456;-62
2020/12/29 10:42:55;;;;;;;1999.90;999.90;;;5.00;99.90;;;;;;5012287;28;20568;-62
2020/12/29 10:45:21;;;;;;;1999.90;999.90;;;5.10;99.90;;;;;;5011695;28;20173;-62
2020/12/29 10:47:46;;;;;;;1999.90;999.90;;;5.10;99.90;;;;;;5011234;28;20662;-63
2020/12/29 10:50:12;;;;;;;1999.90;999.90;;;5.20;99.90;;;;;;5011374;28;20218;-62
2020/12/29 10:52:37;;;;;;;1999.90;999.90;;;5.10;99.90;;;;;;5011398;28;20197;-62
2020/12/29 10:55:03;;;;;;;1999.90;999.90;;;5.20;99.90;;;;;;5011323;28;20173;-62
2020/12/29 10:57:29;;;;;;;1999.90;999.90;;;5.10;99.90;;;;;;5011262;28;20187;-62
2020/12/29 10:59:54;;;;;;;1999.90;999.90;;;5.20;99.90;;;;;;5011055;28;20176;-62
2020/12/29 11:02:20;;;;;;;1999.90;999.90;;;5.10;99.90;;;;;;5011185;28;20180;-62
2020/12/29 11:04:45;;;;;;;1999.90;999.90;;;5.10;99.90;;;;;;5011353;28;20585;-62
2020/12/29 11:07:11;;;;;;;1999.90;999.90;;;5.10;99.90;;;;;;5011317;28;20192;-62
2020/12/29 11:09:36;;;;;;;1999.90;999.90;;;5.10;99.90;;;;;;5011065;28;20214;-62
2020/12/29 11:12:02;;;;;;;1999.90;999.90;;;5.10;99.90;;;;;;5011128;28;20193;-62
2020/12/29 11:14:28;;;;;;;1999.90;999.90;;;5.20;99.90;;;;;;5011339;28;20222;-62
2020/12/29 11:16:54;;;;;;;1999.90;999.90;;;5.30;99.90;;;;;;5011487;28;20189;-62
2020/12/29 11:19:19;;;;;;;1999.90;999.90;;;5.40;99.90;;;;;;5010837;28;20168;-63
2020/12/29 11:21:46;;;;;;;1999.90;999.90;;;5.60;99.90;;;;;;5011393;28;20495;-63
2020/12/29 11:24:11;;;;;;;1999.90;999.90;;;5.70;99.90;;;;;;5011397;28;20260;-62
2020/12/29 11:26:37;;;;;;;1999.90;999.90;;;5.90;99.90;;;;;;5010874;28;20896;-63
2020/12/29 11:29:03;;;;;;;1999.90;999.90;;;6.00;99.90;;;;;;5010694;28;20169;-63
2020/12/29 11:31:28;;;;;;;1999.90;999.90;;;6.00;99.90;;;;;;5011335;28;20212;-63
2020/12/29 11:33:54;;;;;;;1999.90;999.90;;;6.00;99.90;;;;;;5010610;28;20184;-63
2020/12/29 11:36:23;;;;;;;1999.90;999.90;;;6.00;99.90;;;;;;5010904;28;20683;-62
2020/12/29 11:38:49;;;;;;;1999.90;999.90;;;6.20;99.90;;;;;;5010561;28;20173;-63
2020/12/29 11:41:15;;;;;;;1999.90;999.90;;;6.40;99.90;;;;;;5010667;28;20414;-63
2020/12/29 11:43:41;;;;;;;1999.90;999.90;;;6.80;99.90;;;;;;5010708;28;20180;-63
2020/12/29 11:46:07;;;;;;;1999.90;999.90;;;7.10;99.90;;;;;;5010798;28;20439;-63
2020/12/29 11:48:34;;;;;;;1999.90;999.90;;;7.20;99.90;;;;;;5009863;28;20778;-63
2020/12/29 11:51:00;;;;;;;1999.90;999.90;;;7.60;99.90;;;;;;5010471;28;20984;-63
2020/12/29 11:53:25;;;;;;;1999.90;999.90;;;8.30;99.90;;;;;;5010677;28;20412;-63
2020/12/29 11:55:51;;;;;;;1999.90;999.90;;;9.00;99.90;;;;;;5010216;28;20424;-63
2020/12/29 11:58:17;;;;;;;1999.90;999.90;;;9.40;99.90;;;;;;5010144;28;20200;-64
2020/12/29 12:00:44;;;;;;;1999.90;999.90;;;9.80;99.90;;;;;;5010642;28;20602;-62
2020/12/29 12:03:09;;;;;;;1999.90;999.90;;;10.10;99.90;;;;;;5010305;28;20430;-62
2020/12/29 12:05:35;;;;;;;1999.90;999.90;;;10.10;99.90;;;;;;5010501;28;20440;-62
2020/12/29 12:08:01;;;;;;;1999.90;999.90;;;10.30;99.90;;;;;;5010357;28;20173;-62
2020/12/29 12:10:26;;;;;;;1999.90;999.90;;;10.40;99.90;;;;;;5009748;28;20166;-63